»·PEaware :: N8943K KCRQ-KTOA

N8943K :: KCRQ-KTOA

FLIGHT INFORMATION

Flight Status: Arrived
Operator: Privately registered:
United States
More flights under this callsign
Pilot: Jeff K. (12978)
Aircraft: BEECH AIRCRAFT BARON
(BE58)
More flights by this aircraft type
Origin: KCRQ McClellan-Palomar
United States
Destination: KTOA Zamperini
United States
More flights between these airports :: More routes between these airports
Route: OCN V23 SLI
File this flight plan on PilotEdge
Remarks: +CW / TEC route SANP3 KTOA RNAV RWY 11
Altitude:
(Current/Filed)
6,000ft
Speed:
(Current/Filed)
150kts
Departed: 10-Mar-20 01:09 PM
Arrived: 10-Mar-20 01:42 PM
Distance/Time
Traveled:
66nm/0:32
Distance/Time
To Go:
Arrived

Flight Plot

Page will automatically refresh every two minutes.


Map Options




Map Legend


Flown Route
Filed Route
Departure Airport
Arrival Airport
Navaid (VOR, NDB)
Fix

Horizontal Profiles

Position Reports

Time Latitude Longitude Heading Altitude Ground
Speed
10-Mar-20 12:46 33.126794 -117.280650 169 335ft 0kts
10-Mar-20 12:47 33.126794 -117.280650 169 335ft 0kts
10-Mar-20 12:48 33.126794 -117.280650 169 335ft 0kts
10-Mar-20 12:49 33.126794 -117.280650 169 335ft 0kts
10-Mar-20 12:50 33.126794 -117.280650 169 335ft 0kts
10-Mar-20 12:51 33.126794 -117.280650 169 335ft 0kts
10-Mar-20 12:52 33.126794 -117.280650 169 335ft 0kts
10-Mar-20 12:53 33.126794 -117.280650 169 335ft 0kts
10-Mar-20 12:54 33.126794 -117.280650 169 335ft 0kts
10-Mar-20 12:55 33.126794 -117.280650 169 335ft 0kts
10-Mar-20 12:56 33.126794 -117.280650 169 335ft 0kts
10-Mar-20 12:57 33.126794 -117.280650 169 335ft 0kts
10-Mar-20 12:58 33.126827 -117.280800 11 335ft 0kts
10-Mar-20 12:59 33.126827 -117.280800 11 335ft 0kts
10-Mar-20 13:00 33.126827 -117.280800 11 335ft 0kts
10-Mar-20 13:01 33.126827 -117.280800 11 335ft 0kts
10-Mar-20 13:02 33.126827 -117.280800 11 335ft 0kts
10-Mar-20 13:03 33.126827 -117.280800 11 335ft 0kts
10-Mar-20 13:05 33.127388 -117.280200 68 335ft 17kts
10-Mar-20 13:06 33.128465 -117.273637 79 335ft 18kts
10-Mar-20 13:07 33.128490 -117.272225 316 335ft 0kts
10-Mar-20 13:08 33.128490 -117.272225 316 335ft 0kts
10-Mar-20 13:09 33.126658 -117.290517 260 860ft 112kts
10-Mar-20 13:10 33.121749 -117.328869 260 2411ft 121kts
10-Mar-20 13:11 33.116588 -117.371987 263 3006ft 140kts
10-Mar-20 13:12 33.134626 -117.410180 311 3965ft 137kts
10-Mar-20 13:13 33.160717 -117.445096 310 4928ft 144kts
10-Mar-20 13:14 33.187112 -117.480481 312 5881ft 141kts
10-Mar-20 13:15 33.219905 -117.506167 333 5974ft 143kts
10-Mar-20 13:16 33.256300 -117.529511 330 6019ft 153kts
10-Mar-20 13:17 33.294919 -117.554900 332 5915ft 160kts
10-Mar-20 13:18 33.333587 -117.580655 330 5920ft 158kts
10-Mar-20 13:19 33.372046 -117.605534 331 5937ft 158kts
10-Mar-20 13:20 33.408090 -117.635872 318 5932ft 158kts
10-Mar-20 13:21 33.445247 -117.664080 327 5918ft 159kts
10-Mar-20 13:22 33.481010 -117.695052 318 5917ft 158kts
10-Mar-20 13:23 33.512381 -117.731575 310 5917ft 159kts
10-Mar-20 13:23 33.539088 -117.761585 314 5952ft 157kts
10-Mar-20 13:25 33.575999 -117.803873 316 5958ft 158kts
10-Mar-20 13:26 33.608098 -117.839968 316 5986ft 157kts
10-Mar-20 13:26 33.634840 -117.869851 316 5988ft 158kts
10-Mar-20 13:28 33.671484 -117.912620 317 5937ft 154kts
10-Mar-20 13:28 33.697381 -117.940083 311 5877ft 146kts
10-Mar-20 13:29 33.704069 -117.979849 261 5004ft 118kts
10-Mar-20 13:30 33.697142 -118.016643 261 3879ft 109kts
10-Mar-20 13:31 33.692263 -118.052879 261 2992ft 126kts
10-Mar-20 13:32 33.686848 -118.096985 262 2387ft 135kts
10-Mar-20 13:33 33.686221 -118.140612 280 2040ft 124kts
10-Mar-20 13:34 33.696456 -118.179913 303 2026ft 125kts
10-Mar-20 13:35 33.719156 -118.212169 310 2066ft 126kts
10-Mar-20 13:36 33.740882 -118.245105 309 2112ft 127kts
10-Mar-20 13:37 33.766245 -118.277854 314 1979ft 140kts
10-Mar-20 13:38 33.791242 -118.308695 312 1121ft 119kts
10-Mar-20 13:39 33.814454 -118.338084 318 723ft 108kts
10-Mar-20 13:40 33.805360 -118.341455 128 94ft 76kts
10-Mar-20 13:41 33.798444 -118.335622 190 107ft 22kts

Navigation Log

Ident Type
Flight plan parsing failed, navigation log unavailable